createdAt,value
2018-03-26T00:00:13.184Z,24.87
2018-03-26T00:02:40.887Z,26.27
2018-03-26T00:05:08.657Z,24.93
2018-03-26T00:07:37.158Z,25.33
2018-03-26T00:10:05.017Z,24.93
2018-03-26T00:12:32.700Z,24.67
2018-03-26T00:15:01.247Z,24.27
2018-03-26T00:17:29.819Z,23.57
2018-03-26T00:19:57.593Z,25.67
2018-03-26T00:22:25.301Z,25.17
2018-03-26T00:24:52.975Z,24.30
2018-03-26T00:27:20.687Z,25.67
2018-03-26T00:29:48.495Z,25.67
2018-03-26T00:32:16.959Z,24.87
2018-03-26T00:34:45.513Z,24.80
2018-03-26T00:37:13.093Z,25.67
2018-03-26T00:39:43.688Z,22.87
2018-03-26T00:42:11.313Z,24.87
2018-03-26T00:44:39.015Z,24.50
2018-03-26T00:47:06.826Z,24.40
2018-03-26T00:49:34.805Z,26.03
2018-03-26T00:52:03.492Z,25.63
2018-03-26T00:54:31.337Z,24.63
2018-03-26T00:56:59.054Z,25.13
2018-03-26T00:59:26.731Z,26.77
2018-03-26T01:01:54.444Z,26.20
2018-03-26T01:04:22.169Z,26.80
2018-03-26T01:06:50.069Z,24.13
2018-03-26T01:09:17.812Z,26.10
2018-03-26T01:11:45.513Z,24.97
2018-03-26T01:14:13.161Z,23.83
2018-03-26T01:16:40.831Z,25.27
2018-03-26T01:19:08.513Z,25.27
2018-03-26T01:21:37.012Z,24.60
2018-03-26T01:24:04.750Z,25.50
2018-03-26T01:26:32.452Z,24.93
2018-03-26T01:29:00.107Z,24.63
2018-03-26T01:31:29.267Z,25.70
2018-03-26T01:33:57.738Z,25.33
2018-03-26T01:36:26.302Z,24.90
2018-03-26T01:38:54.104Z,25.53
2018-03-26T01:41:21.881Z,26.23
2018-03-26T01:43:49.728Z,25.27
2018-03-26T01:46:17.802Z,27.10
2018-03-26T01:48:45.638Z,25.23
2018-03-26T01:51:13.546Z,26.63
2018-03-26T01:53:41.490Z,27.07
2018-03-26T01:56:09.349Z,26.17
2018-03-26T01:58:37.337Z,29.10
2018-03-26T02:01:05.202Z,27.80
2018-03-26T02:03:33.233Z,28.13
2018-03-26T02:06:01.059Z,27.73
2018-03-26T02:08:28.990Z,27.93
2018-03-26T02:10:56.768Z,27.60
2018-03-26T02:13:25.440Z,28.73
2018-03-26T02:15:53.318Z,28.10
2018-03-26T02:18:21.857Z,28.87
2018-03-26T02:20:50.498Z,30.30
2018-03-26T02:23:18.396Z,29.20
2018-03-26T02:25:47.129Z,30.15
2018-03-26T02:28:15.074Z,30.67
2018-03-26T02:30:43.100Z,31.50
2018-03-26T02:33:10.991Z,30.93
2018-03-26T02:35:38.894Z,31.97
2018-03-26T02:38:06.713Z,32.10
2018-03-26T02:40:34.450Z,32.78
2018-03-26T02:43:02.191Z,32.47
2018-03-26T02:45:29.960Z,29.70
2018-03-26T02:47:57.651Z,30.85
2018-03-26T02:50:25.356Z,30.47
2018-03-26T02:52:53.027Z,31.35
2018-03-26T02:55:21.607Z,31.62
2018-03-26T02:57:49.355Z,32.17
2018-03-26T03:00:17.188Z,33.05
2018-03-26T03:02:45.719Z,31.40
2018-03-26T03:05:13.357Z,32.72
2018-03-26T03:07:40.976Z,32.20
2018-03-26T03:10:09.481Z,33.95
2018-03-26T03:12:38.111Z,34.13
2018-03-26T03:15:06.738Z,33.97
2018-03-26T03:17:34.385Z,34.70
2018-03-26T03:20:02.088Z,35.03
2018-03-26T03:22:30.031Z,35.33
2018-03-26T03:24:58.755Z,33.33
2018-03-26T03:27:26.524Z,32.85
2018-03-26T03:29:54.260Z,32.50
2018-03-26T03:32:22.202Z,33.35
2018-03-26T03:34:50.055Z,34.33
2018-03-26T03:37:17.993Z,33.85
2018-03-26T03:39:45.750Z,32.83
2018-03-26T03:42:13.598Z,33.30
2018-03-26T03:44:41.348Z,30.77
2018-03-26T03:47:09.323Z,31.20
2018-03-26T03:49:37.111Z,31.55
2018-03-26T03:52:04.921Z,32.25
2018-03-26T03:54:32.856Z,30.00
2018-03-26T03:57:00.683Z,32.83
2018-03-26T03:59:28.655Z,34.17
2018-03-26T04:01:57.233Z,31.45
2018-03-26T04:04:24.996Z,32.88
2018-03-26T04:06:52.921Z,33.28
2018-03-26T04:09:21.129Z,33.88
2018-03-26T04:11:49.231Z,34.60
2018-03-26T04:14:17.123Z,32.70
2018-03-26T04:16:44.988Z,30.55
2018-03-26T04:19:12.862Z,32.15
2018-03-26T04:21:40.577Z,33.63
2018-03-26T04:24:08.409Z,34.38
2018-03-26T04:26:36.369Z,35.35
2018-03-26T04:29:04.264Z,34.28
2018-03-26T04:31:33.026Z,34.92
2018-03-26T04:34:00.787Z,34.17
2018-03-26T04:36:28.844Z,36.80
2018-03-26T04:38:56.847Z,34.22
2018-03-26T04:41:24.689Z,35.78
2018-03-26T04:43:52.452Z,34.95
2018-03-26T04:46:20.425Z,35.80
2018-03-26T04:48:48.346Z,35.45
2018-03-26T04:51:16.972Z,35.85
2018-03-26T04:53:44.797Z,36.83
2018-03-26T04:56:13.415Z,35.47
2018-03-26T04:58:41.465Z,36.33
2018-03-26T05:01:09.341Z,35.40
2018-03-26T05:03:37.237Z,35.60
2018-03-26T05:06:05.038Z,34.50
2018-03-26T05:08:33.064Z,34.92
2018-03-26T05:11:00.983Z,37.60
2018-03-26T05:13:28.963Z,36.35
2018-03-26T05:15:57.617Z,35.08
2018-03-26T05:18:25.657Z,34.72
2018-03-26T05:20:53.652Z,34.92
2018-03-26T05:23:21.600Z,36.33
2018-03-26T05:25:49.624Z,36.53
2018-03-26T05:28:17.572Z,35.60
2018-03-26T05:30:45.333Z,36.92
2018-03-26T05:33:13.434Z,36.53
2018-03-26T05:35:41.187Z,35.28
2018-03-26T05:38:09.805Z,35.38
2018-03-26T05:40:37.743Z,37.95
2018-03-26T05:43:05.780Z,37.20
2018-03-26T05:45:33.793Z,36.85
2018-03-26T05:48:01.862Z,35.33
2018-03-26T05:50:29.841Z,39.40
2018-03-26T05:52:57.807Z,38.20
2018-03-26T05:55:25.729Z,38.85
2018-03-26T05:57:53.520Z,38.57
2018-03-26T06:00:21.579Z,40.70
2018-03-26T06:02:49.485Z,40.10
2018-03-26T06:05:17.339Z,36.63
2018-03-26T06:07:45.196Z,37.17
2018-03-26T06:10:13.064Z,37.67
2018-03-26T06:12:41.027Z,35.25
2018-03-26T06:15:09.223Z,37.50
2018-03-26T06:17:37.975Z,37.00
2018-03-26T06:20:06.003Z,40.10
2018-03-26T06:22:33.854Z,37.87
2018-03-26T06:25:01.748Z,38.77
2018-03-26T06:27:29.773Z,38.97
2018-03-26T06:29:58.832Z,38.73
2018-03-26T06:32:27.886Z,38.07
2018-03-26T06:34:55.865Z,37.70
2018-03-26T06:37:28.377Z,38.03
2018-03-26T06:39:56.242Z,36.50
2018-03-26T06:42:24.181Z,37.43
2018-03-26T06:44:52.275Z,35.43
2018-03-26T06:47:20.220Z,37.73
2018-03-26T06:49:48.122Z,35.17
2018-03-26T06:52:16.150Z,35.67
2018-03-26T06:54:44.146Z,34.03
2018-03-26T06:57:13.259Z,35.03
2018-03-26T06:59:41.043Z,35.23
2018-03-26T07:02:10.168Z,35.17
2018-03-26T07:04:37.889Z,36.13
2018-03-26T07:07:05.580Z,37.50
2018-03-26T07:09:33.976Z,37.60
2018-03-26T07:12:02.388Z,36.57
2018-03-26T07:14:30.103Z,37.03
2018-03-26T07:16:57.772Z,35.07
2018-03-26T07:19:25.336Z,35.13
2018-03-26T07:21:54.045Z,35.77
2018-03-26T07:24:21.940Z,35.10
2018-03-26T07:26:49.886Z,35.87
2018-03-26T07:29:17.539Z,35.33
2018-03-26T07:31:45.181Z,34.77
2018-03-26T07:34:12.903Z,34.17
2018-03-26T07:36:42.236Z,36.13
2018-03-26T07:39:09.828Z,33.10
2018-03-26T07:41:37.607Z,32.43
2018-03-26T07:44:06.724Z,34.73
2018-03-26T07:46:34.691Z,33.23
2018-03-26T07:49:02.573Z,33.80
2018-03-26T07:51:30.587Z,34.23
2018-03-26T07:53:58.438Z,34.23
2018-03-26T07:56:26.422Z,34.20
2018-03-26T07:58:54.180Z,33.97
2018-03-26T08:01:21.911Z,33.83
2018-03-26T08:03:50.565Z,34.07
2018-03-26T08:06:18.203Z,34.07
2018-03-26T08:08:46.053Z,34.33
2018-03-26T08:11:13.909Z,35.10
2018-03-26T08:13:41.786Z,33.40
2018-03-26T08:16:09.675Z,35.33
2018-03-26T08:18:38.410Z,33.83
2018-03-26T08:21:06.955Z,33.80
2018-03-26T08:23:34.752Z,32.90
2018-03-26T08:26:03.066Z,33.83
2018-03-26T08:28:31.420Z,34.23
2018-03-26T08:30:59.102Z,33.50
2018-03-26T08:33:27.426Z,34.60
2018-03-26T08:35:55.091Z,33.93
2018-03-26T08:38:22.753Z,33.77
2018-03-26T08:40:50.450Z,34.47
2018-03-26T08:43:18.089Z,34.63
2018-03-26T08:45:45.732Z,33.53
2018-03-26T08:48:13.629Z,34.77
2018-03-26T08:50:41.806Z,33.47
2018-03-26T08:53:10.471Z,33.83
2018-03-26T08:55:39.118Z,33.20
2018-03-26T08:58:06.877Z,31.40
2018-03-26T09:00:35.164Z,32.93
2018-03-26T09:03:05.230Z,32.73
2018-03-26T09:05:35.954Z,32.80
2018-03-26T09:08:03.655Z,34.30
2018-03-26T09:10:31.698Z,32.73
2018-03-26T09:12:59.365Z,34.57
2018-03-26T09:15:27.274Z,32.43
2018-03-26T09:17:55.105Z,32.13
2018-03-26T09:20:22.795Z,33.13
2018-03-26T09:22:51.481Z,31.83
2018-03-26T09:25:19.965Z,32.63
2018-03-26T09:27:50.529Z,33.57
2018-03-26T09:30:18.473Z,33.07
2018-03-26T09:32:48.180Z,31.87
2018-03-26T09:35:16.039Z,32.10
2018-03-26T09:37:44.231Z,33.67
2018-03-26T09:40:12.069Z,32.03
2018-03-26T09:42:40.543Z,32.67
2018-03-26T09:45:08.198Z,31.60
2018-03-26T09:47:48.055Z,32.07
2018-03-26T09:50:20.875Z,31.50
2018-03-26T09:52:49.861Z,32.50
2018-03-26T09:55:18.540Z,32.23
2018-03-26T09:57:47.691Z,32.47
2018-03-26T10:00:17.349Z,31.90
2018-03-26T10:02:49.464Z,33.00
2018-03-26T10:05:18.621Z,32.60
2018-03-26T10:07:46.657Z,32.33
2018-03-26T10:10:17.847Z,33.23
2018-03-26T10:12:46.463Z,31.07
2018-03-26T10:18:04.497Z,32.13
2018-03-26T10:20:32.345Z,33.73
2018-03-26T10:23:11.142Z,33.73
2018-03-26T10:25:39.463Z,32.73
2018-03-26T10:28:07.072Z,32.27
2018-03-26T10:30:34.944Z,31.63
2018-03-26T10:33:02.666Z,30.53
2018-03-26T10:35:30.456Z,31.60
2018-03-26T10:37:58.107Z,30.83
2018-03-26T10:40:26.644Z,32.13
2018-03-26T10:42:54.479Z,33.30
2018-03-26T10:45:23.248Z,33.57
2018-03-26T10:47:51.035Z,34.17
2018-03-26T10:50:18.741Z,33.43
2018-03-26T10:52:46.345Z,31.97
2018-03-26T10:55:14.037Z,33.80
2018-03-26T10:57:41.644Z,31.83
2018-03-26T11:00:09.295Z,32.13
2018-03-26T11:02:36.899Z,31.03
2018-03-26T11:05:04.507Z,31.60
2018-03-26T11:07:32.951Z,31.70
2018-03-26T11:10:01.506Z,33.53
2018-03-26T11:12:29.383Z,32.37
2018-03-26T11:14:57.271Z,31.93
2018-03-26T11:17:25.714Z,32.30
2018-03-26T11:19:53.563Z,32.17
2018-03-26T11:22:24.008Z,32.27
2018-03-26T11:24:52.149Z,31.73
2018-03-26T11:27:29.178Z,31.63
2018-03-26T11:29:57.152Z,32.93
2018-03-26T11:32:25.803Z,31.87
2018-03-26T11:34:53.626Z,32.13
2018-03-26T11:37:26.430Z,31.03
2018-03-26T11:39:54.526Z,31.80
2018-03-26T11:42:22.412Z,31.70
2018-03-26T11:44:50.313Z,29.13
2018-03-26T11:47:18.280Z,29.30
2018-03-26T11:50:04.116Z,31.10
2018-03-26T11:52:33.670Z,32.07
2018-03-26T11:55:01.571Z,28.93
2018-03-26T11:57:29.487Z,29.93
2018-03-26T12:00:00.206Z,29.90
2018-03-26T12:05:20.141Z,28.80
2018-03-26T12:07:49.854Z,30.43
2018-03-26T12:10:17.686Z,31.33
2018-03-26T12:12:46.979Z,32.90
2018-03-26T12:15:14.892Z,30.57
2018-03-26T12:17:43.209Z,33.77
2018-03-26T12:20:24.121Z,33.23
2018-03-26T12:22:51.984Z,32.57
2018-03-26T12:25:21.197Z,31.83
2018-03-26T12:28:10.474Z,30.73
2018-03-26T12:30:39.570Z,31.23
2018-03-26T12:33:07.426Z,29.90
2018-03-26T12:35:47.045Z,29.23
2018-03-26T12:38:15.935Z,30.33
2018-03-26T12:40:56.269Z,31.50
2018-03-26T12:43:24.633Z,31.47
2018-03-26T12:46:06.535Z,30.80
2018-03-26T12:48:35.265Z,31.53
2018-03-26T12:51:16.839Z,30.33
2018-03-26T12:53:44.682Z,33.20
2018-03-26T12:56:13.968Z,32.60
2018-03-26T12:58:48.688Z,30.97
2018-03-26T13:01:28.464Z,32.57
2018-03-26T13:03:56.365Z,33.53
2018-03-26T13:06:24.352Z,32.33
2018-03-26T13:08:53.275Z,34.83
2018-03-26T13:11:21.124Z,34.40
2018-03-26T13:13:48.975Z,34.57
2018-03-26T13:16:16.772Z,34.23
2018-03-26T13:18:44.629Z,33.57
2018-03-26T13:21:12.448Z,34.57
2018-03-26T13:23:40.378Z,33.20
2018-03-26T13:26:08.176Z,34.43
2018-03-26T13:28:36.038Z,34.83
2018-03-26T13:31:03.961Z,34.93
2018-03-26T13:33:32.058Z,34.33
2018-03-26T13:35:59.799Z,34.03
2018-03-26T13:38:27.554Z,35.57
2018-03-26T13:40:55.992Z,36.87
2018-03-26T13:43:23.876Z,35.20
2018-03-26T13:45:51.707Z,34.87
2018-03-26T13:48:19.387Z,33.37
2018-03-26T13:50:47.238Z,32.80
2018-03-26T13:53:15.113Z,34.50
2018-03-26T13:55:43.238Z,33.80
2018-03-26T13:58:11.173Z,33.30
2018-03-26T14:00:39.279Z,32.30
2018-03-26T14:03:07.897Z,31.97
2018-03-26T14:05:35.662Z,33.27
2018-03-26T14:08:03.231Z,31.17
2018-03-26T14:10:42.433Z,31.53
2018-03-26T14:13:21.694Z,31.40
2018-03-26T14:16:01.130Z,31.57
2018-03-26T14:18:28.930Z,34.27
2018-03-26T14:20:57.290Z,34.30
2018-03-26T14:23:24.847Z,33.23
2018-03-26T14:25:52.431Z,34.57
2018-03-26T14:28:20.200Z,32.17
2018-03-26T14:30:48.031Z,33.57
2018-03-26T14:33:16.712Z,33.40
2018-03-26T14:35:44.506Z,32.77
2018-03-26T14:38:12.365Z,34.53
2018-03-26T14:40:40.233Z,33.60
2018-03-26T14:43:08.181Z,33.00
2018-03-26T14:45:36.244Z,34.23
2018-03-26T14:48:04.306Z,31.27
2018-03-26T14:50:32.833Z,32.03
2018-03-26T14:53:00.518Z,34.40
2018-03-26T14:55:28.316Z,33.83
2018-03-26T14:57:56.336Z,31.90
2018-03-26T15:00:24.973Z,31.80
2018-03-26T15:02:52.826Z,32.40
2018-03-26T15:05:20.888Z,33.00
2018-03-26T15:07:48.584Z,33.33
2018-03-26T15:10:17.366Z,31.77
2018-03-26T15:12:45.454Z,33.97
2018-03-26T15:15:13.486Z,32.40
2018-03-26T15:17:41.932Z,32.00
2018-03-26T15:20:10.661Z,31.00
2018-03-26T15:22:39.324Z,30.60
2018-03-26T15:25:07.157Z,32.97
2018-03-26T15:27:35.169Z,32.10
2018-03-26T15:30:03.212Z,32.10
2018-03-26T15:32:31.855Z,32.67
2018-03-26T15:34:59.591Z,31.13
2018-03-26T15:37:27.415Z,31.17
2018-03-26T15:39:55.208Z,31.70
2018-03-26T15:42:23.584Z,31.03
2018-03-26T15:44:51.234Z,31.93
2018-03-26T15:47:18.936Z,31.73
2018-03-26T15:49:46.598Z,30.87
2018-03-26T15:52:14.443Z,32.83
2018-03-26T15:54:42.237Z,30.77
2018-03-26T15:57:10.092Z,32.27
2018-03-26T15:59:39.237Z,31.40
2018-03-26T16:02:06.671Z,30.80
2018-03-26T16:04:34.689Z,29.83
2018-03-26T16:07:02.401Z,32.00
2018-03-26T16:09:30.401Z,32.57
2018-03-26T16:11:58.086Z,30.57
2018-03-26T16:14:25.863Z,31.87
2018-03-26T16:16:53.879Z,33.03
2018-03-26T16:19:21.832Z,32.80
2018-03-26T16:21:49.481Z,71.13
2018-03-26T16:24:17.340Z,64.40
2018-03-26T16:26:45.785Z,46.10
2018-03-26T16:29:13.490Z,35.03
2018-03-26T16:31:41.262Z,38.27
2018-03-26T16:34:08.944Z,40.43
2018-03-26T16:36:36.660Z,34.80
2018-03-26T16:39:04.391Z,34.47
2018-03-26T16:41:43.973Z,36.33
2018-03-26T16:44:11.713Z,33.37
2018-03-26T16:46:40.185Z,32.47
2018-03-26T16:49:08.656Z,31.70
2018-03-26T16:51:36.539Z,32.07
2018-03-26T16:54:05.048Z,32.60
2018-03-26T16:56:33.184Z,31.70
2018-03-26T16:59:01.987Z,33.00
2018-03-26T17:01:30.649Z,32.83
2018-03-26T17:03:58.692Z,32.97
2018-03-26T17:06:26.724Z,37.67
2018-03-26T17:08:54.826Z,34.80
2018-03-26T17:11:23.361Z,32.20
2018-03-26T17:13:51.306Z,31.23
2018-03-26T17:16:19.286Z,33.60
2018-03-26T17:18:47.000Z,34.70
2018-03-26T17:21:15.004Z,32.47
2018-03-26T17:23:42.834Z,32.73
2018-03-26T17:26:10.837Z,31.87
2018-03-26T17:28:38.880Z,30.93
2018-03-26T17:31:06.712Z,32.13
2018-03-26T17:33:34.759Z,30.97
2018-03-26T17:36:02.854Z,30.57
2018-03-26T17:38:30.945Z,30.17
2018-03-26T17:40:58.883Z,32.30
2018-03-26T17:43:26.958Z,32.77
2018-03-26T17:45:55.012Z,31.43
2018-03-26T17:48:22.895Z,31.40
2018-03-26T17:50:50.827Z,33.63
2018-03-26T17:53:20.468Z,32.43
2018-03-26T17:55:48.308Z,33.90
2018-03-26T17:58:17.102Z,32.10
2018-03-26T18:00:45.128Z,33.43
2018-03-26T18:03:13.979Z,31.73
2018-03-26T18:05:43.937Z,31.53
2018-03-26T18:08:11.911Z,33.13
2018-03-26T18:10:39.987Z,32.97
2018-03-26T18:13:08.598Z,82.80
2018-03-26T18:15:36.366Z,142.17
2018-03-26T18:18:04.145Z,136.10
2018-03-26T18:20:32.061Z,118.33
2018-03-26T18:23:00.559Z,49.50
2018-03-26T18:25:28.509Z,42.47
2018-03-26T18:27:56.382Z,35.97
2018-03-26T18:30:24.456Z,32.70
2018-03-26T18:32:52.388Z,32.70
2018-03-26T18:35:20.368Z,31.03
2018-03-26T18:37:48.316Z,32.00
2018-03-26T18:40:16.219Z,30.53
2018-03-26T18:42:44.142Z,32.73
2018-03-26T18:45:12.142Z,30.27
2018-03-26T18:47:40.038Z,30.00
2018-03-26T18:50:07.863Z,31.67
2018-03-26T18:52:35.784Z,30.30
2018-03-26T18:55:05.037Z,31.03
2018-03-26T18:57:33.610Z,34.93
2018-03-26T19:00:01.749Z,32.63
2018-03-26T19:02:29.869Z,36.40
2018-03-26T19:04:57.805Z,35.13
2018-03-26T19:07:25.730Z,36.90
2018-03-26T19:09:53.603Z,33.70
2018-03-26T19:12:21.568Z,35.63
2018-03-26T19:14:50.195Z,33.90
2018-03-26T19:17:18.516Z,33.97
2018-03-26T19:19:46.338Z,33.77
2018-03-26T19:22:14.195Z,32.90
2018-03-26T19:24:42.035Z,33.83
2018-03-26T19:27:11.154Z,34.07
2018-03-26T19:29:39.534Z,32.73
2018-03-26T19:32:07.528Z,34.33
2018-03-26T19:34:35.381Z,34.17
2018-03-26T19:37:03.192Z,32.57
2018-03-26T19:39:32.136Z,35.60
2018-03-26T19:41:59.993Z,34.80
2018-03-26T19:44:28.085Z,34.13
2018-03-26T19:46:56.158Z,35.83
2018-03-26T19:49:24.076Z,35.87
2018-03-26T19:51:52.093Z,34.93
2018-03-26T19:54:19.928Z,35.77
2018-03-26T19:56:47.687Z,39.97
2018-03-26T19:59:15.363Z,39.80
2018-03-26T20:01:43.105Z,41.53
2018-03-26T20:04:11.650Z,40.50
2018-03-26T20:06:39.459Z,39.27
2018-03-26T20:09:07.566Z,42.50
2018-03-26T20:11:35.392Z,38.53
2018-03-26T20:14:03.373Z,40.33
2018-03-26T20:16:31.204Z,45.10
2018-03-26T20:18:59.260Z,46.80
2018-03-26T20:21:27.212Z,45.63
2018-03-26T20:23:55.282Z,49.93
2018-03-26T20:26:23.253Z,45.53
2018-03-26T20:28:51.203Z,47.00
2018-03-26T20:31:21.987Z,45.07
2018-03-26T20:33:51.687Z,40.60
2018-03-26T20:36:19.504Z,43.07
2018-03-26T20:38:48.100Z,38.70
2018-03-26T20:41:15.916Z,39.80
2018-03-26T20:43:43.918Z,39.70
2018-03-26T20:46:11.768Z,35.47
2018-03-26T20:48:39.598Z,37.13
2018-03-26T20:51:07.584Z,35.07
2018-03-26T20:53:35.445Z,36.20
2018-03-26T20:56:03.178Z,36.87
2018-03-26T20:58:31.057Z,35.27
2018-03-26T21:00:59.674Z,35.43
2018-03-26T21:03:28.481Z,37.60
2018-03-26T21:05:56.501Z,36.47
2018-03-26T21:08:24.454Z,37.00
2018-03-26T21:10:52.430Z,35.23
2018-03-26T21:13:20.318Z,35.80
2018-03-26T21:15:48.538Z,36.97
2018-03-26T21:18:16.310Z,35.47
2018-03-26T21:20:46.202Z,37.30
2018-03-26T21:23:15.219Z,36.87
2018-03-26T21:25:43.258Z,36.33
2018-03-26T21:28:12.588Z,37.33
2018-03-26T21:30:40.633Z,38.13
2018-03-26T21:33:10.403Z,37.00
2018-03-26T21:35:39.248Z,35.50
2018-03-26T21:38:07.382Z,37.60
2018-03-26T21:40:35.332Z,35.97
2018-03-26T21:43:03.297Z,38.43
2018-03-26T21:45:35.081Z,38.87
2018-03-26T21:48:03.592Z,37.87
2018-03-26T21:50:31.630Z,37.30
2018-03-26T21:53:00.467Z,38.47
2018-03-26T21:55:28.427Z,38.63
2018-03-26T21:57:57.350Z,40.27
2018-03-26T22:00:25.444Z,40.60
2018-03-26T22:02:53.463Z,38.60
2018-03-26T22:05:22.468Z,37.40
2018-03-26T22:07:51.264Z,40.23
2018-03-26T22:10:19.291Z,38.23
2018-03-26T22:12:47.882Z,36.97
2018-03-26T22:15:15.877Z,38.30
2018-03-26T22:17:44.454Z,37.63
2018-03-26T22:20:12.434Z,37.27
2018-03-26T22:22:40.298Z,37.07
2018-03-26T22:25:10.293Z,36.93
2018-03-26T22:27:39.780Z,36.47
2018-03-26T22:30:09.649Z,38.63
2018-03-26T22:32:38.455Z,36.23
2018-03-26T22:35:06.282Z,36.80
2018-03-26T22:37:34.151Z,36.60
2018-03-26T22:40:02.446Z,36.83
2018-03-26T22:42:30.454Z,37.93
2018-03-26T22:44:59.848Z,38.00
2018-03-26T22:47:30.556Z,37.93
2018-03-26T22:49:58.525Z,38.37
2018-03-26T22:52:28.126Z,40.50
2018-03-26T22:54:56.452Z,40.67
2018-03-26T22:57:24.242Z,40.43
2018-03-26T22:59:52.128Z,41.50
2018-03-26T23:02:20.705Z,41.73
2018-03-26T23:04:48.566Z,43.10
2018-03-26T23:07:16.576Z,42.23
2018-03-26T23:09:44.566Z,40.40
2018-03-26T23:12:12.587Z,42.70
2018-03-26T23:14:40.578Z,42.57
2018-03-26T23:17:09.760Z,43.57
2018-03-26T23:19:37.767Z,43.67
2018-03-26T23:22:05.728Z,42.60
2018-03-26T23:24:35.571Z,44.00
2018-03-26T23:27:04.323Z,42.63
2018-03-26T23:29:34.038Z,42.53
2018-03-26T23:32:01.960Z,43.90
2018-03-26T23:34:30.095Z,43.70
2018-03-26T23:36:59.690Z,44.20
2018-03-26T23:39:27.512Z,47.33
2018-03-26T23:41:55.396Z,46.87
2018-03-26T23:44:23.676Z,45.33
2018-03-26T23:46:51.445Z,46.60
2018-03-26T23:49:19.412Z,48.53
2018-03-26T23:51:48.569Z,46.97
2018-03-26T23:54:17.169Z,48.63
2018-03-26T23:56:46.431Z,46.53
2018-03-26T23:59:14.410Z,45.70
